createdAt,value
2022-09-05T00:01:54.932Z,22.45
2022-09-05T00:05:00.451Z,22.40
2022-09-05T00:07:59.499Z,22.39
2022-09-05T00:11:39.411Z,22.34
2022-09-05T00:13:42.146Z,22.30
2022-09-05T00:16:49.689Z,22.25
2022-09-05T00:24:19.056Z,22.25
2022-09-05T00:24:32.508Z,22.26
2022-09-05T00:26:17.116Z,22.23
2022-09-05T00:30:26.894Z,22.19
2022-09-05T00:32:33.225Z,22.17
2022-09-05T00:35:19.162Z,22.14
2022-09-05T00:37:49.106Z,22.14
2022-09-05T00:40:40.269Z,22.14
2022-09-05T00:43:28.157Z,22.11
2022-09-05T00:46:18.704Z,22.05
2022-09-05T00:48:56.266Z,21.96
2022-09-05T00:51:39.435Z,21.87
2022-09-05T00:54:43.045Z,21.77
2022-09-05T00:57:35.883Z,21.73
2022-09-05T01:00:16.397Z,21.72
2022-09-05T01:03:10.533Z,21.68
2022-09-05T01:05:51.294Z,21.68
2022-09-05T01:09:07.729Z,21.66
2022-09-05T01:11:55.806Z,21.66
2022-09-05T01:15:08.716Z,21.66
2022-09-05T01:17:50.041Z,21.65
2022-09-05T01:20:47.227Z,21.60
2022-09-05T01:23:55.526Z,21.55
2022-09-05T01:26:57.419Z,21.50
2022-09-05T01:29:56.618Z,21.47
2022-09-05T01:32:57.028Z,21.46
2022-09-05T01:36:03.764Z,21.48
2022-09-05T01:40:10.812Z,21.51
2022-09-05T01:42:08.343Z,21.53
2022-09-05T01:44:59.144Z,21.51
2022-09-05T01:48:02.914Z,21.51
2022-09-05T01:50:50.173Z,21.50
2022-09-05T01:53:35.334Z,21.49
2022-09-05T01:56:11.694Z,21.49
2022-09-05T01:59:08.130Z,21.47
2022-09-05T02:01:47.727Z,21.45
2022-09-05T02:04:54.558Z,21.40
2022-09-05T02:07:48.330Z,21.36
2022-09-05T02:11:00.007Z,21.32
2022-09-05T02:13:35.515Z,21.29
2022-09-05T02:16:29.546Z,21.25
2022-09-05T02:19:14.998Z,21.21
2022-09-05T02:22:07.860Z,21.18
2022-09-05T02:24:47.195Z,21.15
2022-09-05T02:27:31.535Z,21.13
2022-09-05T02:30:15.040Z,21.14
2022-09-05T02:33:10.278Z,21.12
2022-09-05T02:36:25.410Z,21.09
2022-09-05T02:45:00.183Z,21.11
2022-09-05T02:45:08.519Z,21.08
2022-09-05T02:45:27.956Z,21.05
2022-09-05T02:48:23.819Z,21.04
2022-09-05T02:57:23.254Z,21.01
2022-09-05T02:57:35.749Z,21.01
2022-09-05T02:58:04.931Z,20.96
2022-09-05T03:00:20.034Z,20.94
2022-09-05T03:03:12.594Z,20.88
2022-09-05T03:06:05.242Z,20.83
2022-09-05T03:09:09.729Z,20.79
2022-09-05T03:12:29.465Z,20.76
2022-09-05T03:15:18.649Z,20.74
2022-09-05T03:18:18.004Z,20.70
2022-09-05T03:21:09.122Z,20.67
2022-09-05T03:24:08.841Z,20.63
2022-09-05T03:26:50.142Z,20.63
2022-09-05T03:29:44.269Z,20.64
2022-09-05T03:32:13.399Z,20.65
2022-09-05T03:35:03.127Z,20.64
2022-09-05T03:38:25.546Z,20.64
2022-09-05T03:41:18.770Z,20.63
2022-09-05T03:44:04.161Z,20.58
2022-09-05T03:46:59.411Z,20.54
2022-09-05T03:51:24.342Z,20.50
2022-09-05T03:57:15.588Z,20.40
2022-09-05T03:57:21.024Z,20.42
2022-09-05T03:59:37.917Z,20.41
2022-09-05T04:02:08.876Z,20.38
2022-09-05T04:08:18.375Z,20.34
2022-09-05T04:08:27.803Z,20.27
2022-09-05T04:10:59.617Z,20.21
2022-09-05T04:13:51.109Z,20.13
2022-09-05T04:16:27.142Z,20.08
2022-09-05T04:19:06.594Z,20.04
2022-09-05T04:21:44.265Z,20.02
2022-09-05T04:24:30.510Z,19.96
2022-09-05T04:27:10.185Z,19.92
2022-09-05T04:30:39.685Z,19.84
2022-09-05T04:33:36.100Z,19.84
2022-09-05T04:36:19.556Z,19.82
2022-09-05T04:39:05.084Z,19.80
2022-09-05T04:41:37.733Z,19.79
2022-09-05T04:44:16.315Z,19.79
2022-09-05T04:46:53.726Z,19.77
2022-09-05T04:49:31.943Z,19.72
2022-09-05T04:52:29.406Z,19.65
2022-09-05T04:55:11.821Z,19.63
2022-09-05T04:57:56.841Z,19.59
2022-09-05T05:06:02.543Z,19.57
2022-09-05T05:06:04.736Z,19.52
2022-09-05T05:06:55.355Z,19.49
2022-09-05T05:10:12.062Z,19.46
2022-09-05T05:17:57.399Z,19.45
2022-09-05T05:18:12.190Z,19.46
2022-09-05T05:19:23.362Z,19.49
2022-09-05T05:21:54.834Z,19.52
2022-09-05T05:24:26.515Z,19.48
2022-09-05T05:27:15.650Z,19.50
2022-09-05T05:30:07.729Z,19.52
2022-09-05T05:32:45.601Z,19.59
2022-09-05T05:35:18.731Z,19.65
2022-09-05T05:37:47.467Z,19.71
2022-09-05T05:40:26.919Z,19.73
2022-09-05T05:45:58.895Z,19.80
2022-09-05T05:48:42.208Z,19.78
2022-09-05T05:52:01.676Z,19.77
2022-09-05T05:55:24.349Z,19.76
2022-09-05T05:58:14.310Z,19.78
2022-09-05T06:00:52.761Z,19.82
2022-09-05T06:03:36.252Z,19.87
2022-09-05T06:06:23.021Z,19.94
2022-09-05T06:14:51.678Z,20.03
2022-09-05T06:15:06.632Z,20.14
2022-09-05T06:15:34.349Z,20.26
2022-09-05T06:18:24.352Z,20.34
2022-09-05T06:22:07.418Z,20.43
2022-09-05T06:24:24.252Z,20.56
2022-09-05T06:27:03.109Z,20.67
2022-09-05T06:29:57.496Z,20.76
2022-09-05T06:32:32.961Z,20.87
2022-09-05T06:35:18.226Z,20.97
2022-09-05T06:38:06.221Z,21.10
2022-09-05T06:40:55.832Z,21.24
2022-09-05T06:43:31.796Z,21.41
2022-09-05T06:46:04.443Z,21.59
2022-09-05T06:49:31.114Z,21.78
2022-09-05T06:51:45.269Z,22.03
2022-09-05T06:54:34.659Z,22.27
2022-09-05T06:57:30.751Z,22.52
2022-09-05T07:00:17.511Z,22.77
2022-09-05T07:02:58.746Z,23.00
2022-09-05T07:05:45.786Z,23.29
2022-09-05T07:08:31.789Z,23.57
2022-09-05T07:11:15.652Z,23.85
2022-09-05T07:14:04.834Z,24.12
2022-09-05T07:16:49.855Z,24.38
2022-09-05T07:19:25.432Z,24.63
2022-09-05T07:22:46.669Z,24.89
2022-09-05T07:25:18.375Z,25.17
2022-09-05T07:28:29.136Z,25.38
2022-09-05T07:30:59.190Z,25.62
2022-09-05T07:33:30.074Z,25.84
2022-09-05T07:36:16.626Z,26.04
2022-09-05T07:38:58.807Z,26.20
2022-09-05T07:41:41.046Z,26.46
2022-09-05T07:44:38.748Z,26.69
2022-09-05T07:47:15.628Z,26.93
2022-09-05T07:50:30.882Z,27.14
2022-09-05T07:56:51.980Z,27.39
2022-09-05T07:57:04.915Z,27.70
2022-09-05T07:58:39.933Z,27.93
2022-09-05T08:01:09.237Z,28.07
2022-09-05T08:03:42.100Z,28.16
2022-09-05T08:06:37.505Z,28.28
2022-09-05T08:09:49.585Z,28.48
2022-09-05T08:12:01.023Z,28.66
2022-09-05T08:15:04.985Z,28.82
2022-09-05T08:17:35.467Z,28.94
2022-09-05T08:20:14.098Z,29.01
2022-09-05T08:23:31.052Z,29.14
2022-09-05T08:26:04.606Z,29.39
2022-09-05T08:29:05.095Z,29.60
2022-09-05T08:31:46.986Z,29.73
2022-09-05T08:34:32.797Z,29.84
2022-09-05T08:37:22.060Z,30.02
2022-09-05T08:40:01.713Z,30.16
2022-09-05T08:46:35.124Z,30.38
2022-09-05T08:46:45.991Z,30.55
2022-09-05T08:48:54.790Z,30.68
2022-09-05T08:51:54.405Z,30.83
2022-09-05T08:54:58.247Z,30.98
2022-09-05T08:57:59.373Z,31.10
2022-09-05T09:00:33.301Z,31.20
2022-09-05T09:03:25.752Z,31.31
2022-09-05T09:06:14.334Z,31.42
2022-09-05T09:09:05.399Z,31.50
2022-09-05T09:11:44.143Z,31.57
2022-09-05T09:14:32.306Z,31.62
2022-09-05T09:17:28.623Z,31.69
2022-09-05T09:20:33.444Z,31.82
2022-09-05T09:23:32.628Z,31.96
2022-09-05T09:26:11.519Z,32.12
2022-09-05T09:28:49.575Z,32.24
2022-09-05T09:31:48.791Z,32.33
2022-09-05T09:34:28.660Z,32.47
2022-09-05T09:37:11.181Z,32.57
2022-09-05T09:39:39.803Z,32.65
2022-09-05T09:42:47.723Z,32.69
2022-09-05T09:45:41.461Z,32.81
2022-09-05T09:48:10.740Z,32.92
2022-09-05T09:51:02.306Z,33.05
2022-09-05T09:54:06.169Z,33.16
2022-09-05T09:57:10.039Z,33.29
2022-09-05T10:00:08.311Z,33.43
2022-09-05T10:07:31.800Z,33.61
2022-09-05T10:10:43.931Z,33.73
2022-09-05T10:11:05.328Z,33.85
2022-09-05T10:12:46.806Z,34.00
2022-09-05T10:15:38.070Z,34.16
2022-09-05T10:18:14.524Z,34.25
2022-09-05T10:21:16.347Z,34.33
2022-09-05T10:24:04.597Z,34.44
2022-09-05T10:26:45.401Z,34.59
2022-09-05T10:29:38.529Z,34.67
2022-09-05T10:35:11.722Z,34.77
2022-09-05T10:35:18.358Z,34.76
2022-09-05T10:37:54.822Z,34.81
2022-09-05T10:40:25.565Z,34.83
2022-09-05T10:43:00.478Z,34.90
2022-09-05T10:45:39.180Z,35.01
2022-09-05T10:48:16.964Z,35.14
2022-09-05T10:50:49.424Z,35.30
2022-09-05T10:53:47.434Z,35.47
2022-09-05T10:56:19.670Z,35.62
2022-09-05T11:02:18.800Z,35.66
2022-09-05T11:02:29.398Z,35.77
2022-09-05T11:05:15.442Z,35.94
2022-09-05T11:07:59.204Z,36.07
2022-09-05T11:10:35.335Z,36.17
2022-09-05T11:13:25.328Z,36.22
2022-09-05T11:16:15.368Z,36.24
2022-09-05T11:18:54.729Z,36.31
2022-09-05T11:21:41.434Z,36.39
2022-09-05T11:24:19.167Z,36.48
2022-09-05T11:26:52.957Z,36.47
2022-09-05T11:29:45.419Z,36.47
2022-09-05T11:36:14.652Z,36.43
2022-09-05T11:39:45.992Z,36.45
2022-09-05T11:40:26.567Z,36.45
2022-09-05T11:42:05.121Z,36.48
2022-09-05T11:44:57.441Z,36.45
2022-09-05T11:47:51.634Z,36.47
2022-09-05T11:50:35.299Z,36.51
2022-09-05T11:53:34.085Z,36.53
2022-09-05T11:56:29.113Z,36.69
2022-09-05T11:59:33.318Z,36.84
2022-09-05T12:02:24.012Z,36.99
2022-09-05T12:05:49.031Z,37.08
2022-09-05T12:08:05.736Z,37.08
2022-09-05T12:11:08.818Z,37.15
2022-09-05T12:13:48.067Z,37.24
2022-09-05T12:16:20.695Z,37.31
2022-09-05T12:19:34.511Z,37.34
2022-09-05T12:22:30.481Z,37.37
2022-09-05T12:25:25.055Z,37.35
2022-09-05T12:28:51.050Z,37.28
2022-09-05T12:31:09.951Z,37.31
2022-09-05T12:36:05.916Z,37.34
2022-09-05T12:40:45.050Z,37.31
2022-09-05T12:40:46.276Z,37.40
2022-09-05T12:42:56.306Z,37.50
2022-09-05T12:45:37.640Z,37.60
2022-09-05T12:48:26.334Z,37.66
2022-09-05T12:51:45.065Z,37.77
2022-09-05T12:54:32.669Z,37.79
2022-09-05T13:01:41.957Z,37.88
2022-09-05T13:03:09.852Z,37.87
2022-09-05T13:03:27.136Z,37.78
2022-09-05T13:06:03.499Z,37.65
2022-09-05T13:08:43.857Z,37.65
2022-09-05T13:14:47.803Z,37.68
2022-09-05T13:14:52.852Z,37.69
2022-09-05T13:16:57.784Z,37.71
2022-09-05T13:19:37.661Z,37.77
2022-09-05T13:22:06.186Z,37.81
2022-09-05T13:24:41.391Z,37.86
2022-09-05T13:27:16.033Z,37.87
2022-09-05T13:31:40.670Z,37.91
2022-09-05T13:37:58.027Z,37.99
2022-09-05T13:38:17.482Z,37.93
2022-09-05T13:39:07.758Z,38.11
2022-09-05T13:41:44.551Z,38.12
2022-09-05T13:44:25.497Z,38.07
2022-09-05T13:47:28.814Z,37.99
2022-09-05T13:50:23.071Z,37.97
2022-09-05T13:52:55.817Z,37.98
2022-09-05T13:55:24.977Z,37.96
2022-09-05T13:58:25.010Z,37.96
2022-09-05T14:01:12.819Z,38.00
2022-09-05T14:04:06.642Z,37.98
2022-09-05T14:07:43.867Z,38.00
2022-09-05T14:09:55.838Z,38.05
2022-09-05T14:12:29.388Z,38.02
2022-09-05T14:15:10.009Z,38.00
2022-09-05T14:18:21.454Z,37.98
2022-09-05T14:21:19.175Z,37.92
2022-09-05T14:23:56.653Z,37.82
2022-09-05T14:26:25.399Z,37.81
2022-09-05T14:29:03.846Z,37.77
2022-09-05T14:37:43.859Z,37.67
2022-09-05T14:37:54.429Z,37.74
2022-09-05T14:38:15.139Z,37.61
2022-09-05T14:41:03.718Z,37.56
2022-09-05T14:44:05.770Z,37.51
2022-09-05T14:46:53.569Z,37.38
2022-09-05T14:49:39.991Z,37.30
2022-09-05T14:52:23.719Z,37.22
2022-09-05T15:02:39.360Z,37.15
2022-09-05T15:02:58.394Z,37.11
2022-09-05T15:06:33.331Z,37.04
2022-09-05T15:11:26.247Z,37.01
2022-09-05T15:12:19.929Z,37.05
2022-09-05T15:14:45.482Z,37.04
2022-09-05T15:17:21.591Z,36.99
2022-09-05T15:20:07.738Z,36.98
2022-09-05T15:22:39.687Z,36.88
2022-09-05T15:25:18.341Z,36.81
2022-09-05T15:27:46.567Z,36.78
2022-09-05T15:30:35.182Z,36.70
2022-09-05T15:33:35.906Z,36.55
2022-09-05T15:36:05.467Z,36.48
2022-09-05T15:38:55.408Z,36.41
2022-09-05T15:41:28.077Z,36.35
2022-09-05T15:44:12.750Z,36.27
2022-09-05T15:47:01.233Z,36.22
2022-09-05T15:49:36.547Z,36.15
2022-09-05T15:52:09.117Z,36.04
2022-09-05T15:54:53.435Z,35.91
2022-09-05T15:57:31.171Z,35.81
2022-09-05T16:00:02.030Z,35.71
2022-09-05T16:02:39.618Z,35.59
2022-09-05T16:10:29.027Z,35.49
2022-09-05T16:10:41.442Z,35.36
2022-09-05T16:14:22.671Z,35.16
2022-09-05T16:23:17.036Z,35.10
2022-09-05T16:23:28.693Z,35.07
2022-09-05T16:23:42.083Z,35.02
2022-09-05T16:26:24.909Z,35.00
2022-09-05T16:29:06.889Z,34.96
2022-09-05T16:32:05.540Z,34.87
2022-09-05T16:34:47.338Z,34.83
2022-09-05T16:37:19.153Z,34.76
2022-09-05T16:39:52.292Z,34.67
2022-09-05T16:42:45.901Z,34.57
2022-09-05T16:45:35.124Z,34.50
2022-09-05T16:48:11.393Z,34.45
2022-09-05T16:50:50.175Z,34.40
2022-09-05T16:53:30.306Z,34.37
2022-09-05T16:56:04.098Z,34.33
2022-09-05T16:58:32.353Z,34.26
2022-09-05T17:01:19.079Z,34.14
2022-09-05T17:04:26.630Z,34.06
2022-09-05T17:07:03.165Z,34.01
2022-09-05T17:09:40.222Z,33.93
2022-09-05T17:12:11.972Z,33.90
2022-09-05T17:14:50.201Z,33.82
2022-09-05T17:18:21.559Z,33.74
2022-09-05T17:20:14.445Z,33.65
2022-09-05T17:29:19.598Z,33.56
2022-09-05T17:29:25.247Z,33.43
2022-09-05T17:29:31.061Z,33.32
2022-09-05T17:32:01.734Z,33.19
2022-09-05T17:35:16.568Z,33.03
2022-09-05T17:38:13.657Z,32.91
2022-09-05T17:40:45.875Z,32.79
2022-09-05T17:43:29.091Z,32.68
2022-09-05T17:46:28.868Z,32.60
2022-09-05T17:49:18.698Z,32.53
2022-09-05T17:51:51.014Z,32.43
2022-09-05T17:54:31.326Z,32.31
2022-09-05T17:57:26.611Z,32.20
2022-09-05T18:00:07.062Z,32.11
2022-09-05T18:02:54.337Z,32.02
2022-09-05T18:05:56.871Z,31.90
2022-09-05T18:08:45.203Z,31.80
2022-09-05T18:11:30.518Z,31.66
2022-09-05T18:14:24.664Z,31.57
2022-09-05T18:17:37.167Z,31.51
2022-09-05T18:19:43.814Z,31.43
2022-09-05T18:22:33.581Z,31.35
2022-09-05T18:25:16.719Z,31.27
2022-09-05T18:28:04.867Z,31.18
2022-09-05T18:33:54.094Z,31.03
2022-09-05T18:36:27.645Z,30.92
2022-09-05T18:39:25.450Z,30.82
2022-09-05T18:42:26.537Z,30.73
2022-09-05T18:45:02.110Z,30.64
2022-09-05T18:47:33.528Z,30.58
2022-09-05T18:50:27.034Z,30.51
2022-09-05T18:53:09.046Z,30.40
2022-09-05T18:56:14.015Z,30.30
2022-09-05T18:58:34.485Z,30.17
2022-09-05T19:01:23.108Z,30.05
2022-09-05T19:04:00.991Z,29.97
2022-09-05T19:06:35.044Z,29.90
2022-09-05T19:09:14.121Z,29.84
2022-09-05T19:11:57.817Z,29.80
2022-09-05T19:14:53.392Z,29.75
2022-09-05T19:17:31.228Z,29.71
2022-09-05T19:20:34.055Z,29.65
2022-09-05T19:23:09.779Z,29.61
2022-09-05T19:25:44.090Z,29.52
2022-09-05T19:36:42.493Z,29.42
2022-09-05T19:37:09.432Z,29.17
2022-09-05T19:37:12.360Z,29.28
2022-09-05T19:37:26.299Z,29.08
2022-09-05T19:42:20.033Z,29.07
2022-09-05T19:47:33.998Z,29.08
2022-09-05T19:47:36.099Z,29.07
2022-09-05T19:48:30.466Z,29.08
2022-09-05T19:51:16.999Z,29.10
2022-09-05T19:53:54.046Z,29.14
2022-09-05T19:56:38.430Z,29.11
2022-09-05T19:59:22.907Z,29.07
2022-09-05T20:01:51.620Z,29.03
2022-09-05T20:04:19.602Z,28.99
2022-09-05T20:06:48.127Z,28.98
2022-09-05T20:09:20.649Z,28.98
2022-09-05T20:11:52.526Z,28.94
2022-09-05T20:14:23.813Z,28.91
2022-09-05T20:16:54.254Z,28.90
2022-09-05T20:19:33.200Z,28.87
2022-09-05T20:22:24.592Z,28.85
2022-09-05T20:24:56.465Z,28.79
2022-09-05T20:27:28.076Z,28.74
2022-09-05T20:30:04.033Z,28.67
2022-09-05T20:32:40.487Z,28.63
2022-09-05T20:40:11.856Z,28.59
2022-09-05T20:43:30.343Z,28.51
2022-09-05T20:43:36.695Z,28.55
2022-09-05T20:43:55.869Z,28.47
2022-09-05T20:52:34.959Z,28.44
2022-09-05T20:54:08.263Z,28.39
2022-09-05T20:54:14.691Z,28.36
2022-09-05T20:55:37.768Z,28.31
2022-09-05T20:57:47.647Z,28.24
2022-09-05T21:00:20.013Z,28.16
2022-09-05T21:02:56.103Z,28.10
2022-09-05T21:05:33.768Z,28.04
2022-09-05T21:08:32.583Z,27.94
2022-09-05T21:11:01.847Z,27.88
2022-09-05T21:13:45.399Z,27.79
2022-09-05T21:16:28.433Z,27.74
2022-09-05T21:18:55.284Z,27.68
2022-09-05T21:21:30.532Z,27.60
2022-09-05T21:24:17.479Z,27.55
2022-09-05T21:26:47.492Z,27.49
2022-09-05T21:29:18.852Z,27.43
2022-09-05T21:31:54.545Z,27.40
2022-09-05T21:34:28.011Z,27.35
2022-09-05T21:37:07.175Z,27.29
2022-09-05T21:39:38.144Z,27.19
2022-09-05T21:43:40.887Z,27.12
2022-09-05T21:47:47.848Z,27.07
2022-09-05T21:47:52.364Z,27.03
2022-09-05T21:50:31.343Z,26.99
2022-09-05T21:55:46.559Z,26.94
2022-09-05T21:59:19.729Z,26.86
2022-09-05T21:59:24.254Z,26.77
2022-09-05T22:01:51.140Z,26.70
2022-09-05T22:04:15.250Z,26.60
2022-09-05T22:06:43.748Z,26.54
2022-09-05T22:09:13.661Z,26.51
2022-09-05T22:11:41.198Z,26.49
2022-09-05T22:14:11.498Z,26.47
2022-09-05T22:16:44.902Z,26.45
2022-09-05T22:19:21.325Z,26.44
2022-09-05T22:21:50.737Z,26.39
2022-09-05T22:24:19.025Z,26.35
2022-09-05T22:27:11.767Z,26.27
2022-09-05T22:29:37.933Z,26.22
2022-09-05T22:32:05.226Z,26.19
2022-09-05T22:34:33.515Z,26.15
2022-09-05T22:37:00.017Z,26.13
2022-09-05T22:39:37.299Z,26.14
2022-09-05T22:42:07.580Z,26.16
2022-09-05T22:44:39.969Z,26.15
2022-09-05T22:47:08.400Z,26.15
2022-09-05T22:49:36.470Z,26.17
2022-09-05T22:52:07.798Z,26.17
2022-09-05T22:54:41.717Z,26.16
2022-09-05T22:57:08.221Z,26.12
2022-09-05T22:59:34.729Z,26.05
2022-09-05T23:02:01.273Z,25.98
2022-09-05T23:04:32.044Z,25.96
2022-09-05T23:07:02.755Z,25.95
2022-09-05T23:09:30.155Z,25.92
2022-09-05T23:11:56.631Z,25.89
2022-09-05T23:14:26.269Z,25.89
2022-09-05T23:16:53.087Z,25.87
2022-09-05T23:19:19.578Z,25.86
2022-09-05T23:21:46.150Z,25.84
2022-09-05T23:24:14.491Z,25.80
2022-09-05T23:26:40.983Z,25.75
2022-09-05T23:29:07.474Z,25.71
2022-09-05T23:31:34.057Z,25.67
2022-09-05T23:34:01.501Z,25.70
2022-09-05T23:36:28.032Z,25.69
2022-09-05T23:38:54.574Z,25.70
2022-09-05T23:41:21.097Z,25.65
2022-09-05T23:43:52.241Z,25.64
2022-09-05T23:46:18.863Z,25.64
2022-09-05T23:48:45.444Z,25.65
2022-09-05T23:51:13.445Z,25.63
2022-09-05T23:53:42.843Z,25.61
2022-09-05T23:56:10.821Z,25.60
2022-09-05T23:58:38.554Z,25.61
